Time;durP1;ratioP1;P1;durP2;ratioP2;P2;SDS_P1;SDS_P2;PMS_P1;PMS_P2;Temp;Humidity;BMP_temperature;BMP_pressure;BME280_temperature;BME280_humidity;BME280_pressure;Samples;Min_cycle;Max_cycle;Signal;HPM_P1;HPM_P2
2023/05/15 00:00:56;;;;;;;11.15;7.57;;;;;;;;;;5049905;28;20053;-64
2023/05/15 00:03:24;;;;;;;9.77;7.90;;;;;;;;;;5049117;28;20049;-64
2023/05/15 00:05:51;;;;;;;9.95;7.85;;;;;;;;;;5049449;28;20053;-64
2023/05/15 00:08:19;;;;;;;8.77;7.55;;;;;;;;;;5049592;28;20520;-64
2023/05/15 00:10:45;;;;;;;9.20;7.75;;;;;;;;;;5049795;28;20140;-64
2023/05/15 00:13:12;;;;;;;8.85;7.95;;;;;;;;;;5049855;28;20409;-64
2023/05/15 00:15:38;;;;;;;10.63;8.40;;;;;;;;;;5050216;28;20041;-64
2023/05/15 00:18:05;;;;;;;9.18;7.93;;;;;;;;;;5050050;28;20053;-64
2023/05/15 00:20:31;;;;;;;10.18;7.22;;;;;;;;;;5049006;28;20053;-64
2023/05/15 00:22:58;;;;;;;11.15;8.43;;;;;;;;;;5049975;28;20055;-65
2023/05/15 00:25:26;;;;;;;9.15;7.60;;;;;;;;;;5049211;28;20504;-64
2023/05/15 00:27:52;;;;;;;10.32;7.47;;;;;;;;;;5050191;28;20513;-65
2023/05/15 00:30:19;;;;;;;9.68;7.93;;;;;;;;;;5049167;28;20132;-64
2023/05/15 00:32:45;;;;;;;13.13;8.45;;;;;;;;;;5050065;28;20052;-64
2023/05/15 00:35:12;;;;;;;9.15;7.45;;;;;;;;;;5048308;28;20136;-64
2023/05/15 00:37:39;;;;;;;10.82;8.25;;;;;;;;;;5049612;28;20052;-64
2023/05/15 00:40:07;;;;;;;10.30;8.82;;;;;;;;;;5048604;28;20402;-64
2023/05/15 00:42:35;;;;;;;11.75;8.95;;;;;;;;;;5049791;28;20045;-64
2023/05/15 00:45:03;;;;;;;13.77;10.25;;;;;;;;;;5049642;28;20045;-64
2023/05/15 00:47:30;;;;;;;10.20;8.82;;;;;;;;;;5049848;28;20053;-64
2023/05/15 00:49:57;;;;;;;10.80;8.77;;;;;;;;;;5053044;28;20052;-64
2023/05/15 00:52:24;;;;;;;9.88;8.50;;;;;;;;;;5052817;28;20056;-64
2023/05/15 00:54:51;;;;;;;10.35;8.60;;;;;;;;;;5053503;28;20103;-64
2023/05/15 00:57:18;;;;;;;11.55;9.48;;;;;;;;;;5052663;28;20076;-64
2023/05/15 00:59:47;;;;;;;10.77;8.95;;;;;;;;;;5052640;28;20048;-64
2023/05/15 01:02:16;;;;;;;12.25;9.43;;;;;;;;;;5053019;28;20053;-64
2023/05/15 01:04:43;;;;;;;9.50;8.38;;;;;;;;;;5052368;28;20049;-63
2023/05/15 01:07:09;;;;;;;10.52;8.85;;;;;;;;;;5070126;28;20052;-64
2023/05/15 01:09:37;;;;;;;13.32;8.57;;;;;;;;;;5072747;28;20049;-65
2023/05/15 01:12:05;;;;;;;10.50;8.45;;;;;;;;;;5072673;28;20111;-64
2023/05/15 01:14:32;;;;;;;11.18;8.27;;;;;;;;;;5073492;28;20494;-64
2023/05/15 01:17:00;;;;;;;12.45;8.50;;;;;;;;;;5072839;28;20330;-64
2023/05/15 01:19:26;;;;;;;10.73;8.13;;;;;;;;;;5072747;28;20215;-63
2023/05/15 01:22:21;;;;;;;24.02;9.98;;;;;;;;;;5072613;28;20433;-64
2023/05/15 01:25:22;;;;;;;11.50;8.52;;;;;;;;;;5073356;28;20049;-64
2023/05/15 01:27:52;;;;;;;11.38;8.93;;;;;;;;;;5072831;28;20480;-64
2023/05/15 01:30:25;;;;;;;10.63;9.13;;;;;;;;;;5072490;28;20052;-64
2023/05/15 01:32:57;;;;;;;13.70;9.73;;;;;;;;;;5072554;28;20047;-64
2023/05/15 01:35:31;;;;;;;12.07;8.93;;;;;;;;;;5053017;28;20068;-64
2023/05/15 01:38:04;;;;;;;11.90;9.07;;;;;;;;;;5052868;28;20057;-64
2023/05/15 01:40:30;;;;;;;17.02;9.25;;;;;;;;;;5051778;28;20053;-63
2023/05/15 01:43:05;;;;;;;11.70;8.65;;;;;;;;;;5052579;28;20052;-65
2023/05/15 01:48:07;;;;;;;13.32;9.43;;;;;;;;;;5030427;28;20563;-70
2023/05/15 01:50:35;;;;;;;12.15;9.35;;;;;;;;;;5031169;28;20406;-70
2023/05/15 01:53:03;;;;;;;12.38;9.07;;;;;;;;;;5031721;28;20045;-70
2023/05/15 01:55:30;;;;;;;13.30;9.75;;;;;;;;;;5031590;28;20048;-68
2023/05/15 01:58:01;;;;;;;13.55;9.77;;;;;;;;;;5031962;28;20054;-70
2023/05/15 02:00:28;;;;;;;14.05;10.40;;;;;;;;;;5030225;28;20041;-70
2023/05/15 02:02:56;;;;;;;11.52;9.55;;;;;;;;;;5030776;28;20408;-70
2023/05/15 02:05:23;;;;;;;13.80;10.50;;;;;;;;;;5029790;28;20056;-70
2023/05/15 02:07:50;;;;;;;11.88;9.75;;;;;;;;;;5031703;28;20050;-70
2023/05/15 02:10:18;;;;;;;13.95;10.40;;;;;;;;;;5030702;28;20045;-70
2023/05/15 02:12:45;;;;;;;13.32;10.13;;;;;;;;;;5031626;28;20046;-70
2023/05/15 02:15:13;;;;;;;14.93;10.13;;;;;;;;;;5031772;28;20491;-70
2023/05/15 02:17:40;;;;;;;12.30;9.82;;;;;;;;;;5031018;28;20045;-70
2023/05/15 02:20:08;;;;;;;11.50;9.40;;;;;;;;;;5031017;28;20137;-68
2023/05/15 02:22:36;;;;;;;12.25;9.85;;;;;;;;;;5031552;28;20127;-69
2023/05/15 02:25:02;;;;;;;12.25;9.65;;;;;;;;;;5031903;28;20045;-67
2023/05/15 02:27:38;;;;;;;11.93;10.15;;;;;;;;;;5031208;28;20049;-67
2023/05/15 02:30:20;;;;;;;12.98;9.43;;;;;;;;;;5031802;28;20045;-68
2023/05/15 02:32:54;;;;;;;11.57;9.15;;;;;;;;;;5031364;28;20049;-68
2023/05/15 02:35:30;;;;;;;14.32;10.15;;;;;;;;;;5030016;28;20042;-68
2023/05/15 02:38:00;;;;;;;15.93;9.60;;;;;;;;;;5030900;28;20133;-68
2023/05/15 02:40:29;;;;;;;11.65;9.43;;;;;;;;;;5030714;28;20045;-68
2023/05/15 02:42:56;;;;;;;12.75;9.02;;;;;;;;;;5030355;28;20046;-68
2023/05/15 02:45:26;;;;;;;12.43;8.63;;;;;;;;;;5030986;28;20542;-69
2023/05/15 02:47:53;;;;;;;13.23;9.55;;;;;;;;;;5030333;28;20503;-69
2023/05/15 02:50:20;;;;;;;12.38;9.07;;;;;;;;;;5030394;28;20041;-68
2023/05/15 02:52:47;;;;;;;13.88;9.52;;;;;;;;;;5031252;28;20053;-69
2023/05/15 02:55:13;;;;;;;13.35;9.93;;;;;;;;;;5030644;28;20056;-69
2023/05/15 02:57:40;;;;;;;11.30;9.48;;;;;;;;;;5030523;28;20049;-69
2023/05/15 03:00:10;;;;;;;11.23;9.52;;;;;;;;;;5029981;28;20049;-69
2023/05/15 03:02:38;;;;;;;11.82;9.77;;;;;;;;;;5030602;28;20042;-69
2023/05/15 03:05:06;;;;;;;12.98;9.68;;;;;;;;;;5021124;28;20046;-69
2023/05/15 03:07:32;;;;;;;13.10;10.18;;;;;;;;;;5010560;28;20050;-69
2023/05/15 03:09:59;;;;;;;11.82;9.38;;;;;;;;;;5010107;28;20046;-70
2023/05/15 03:12:25;;;;;;;12.80;9.55;;;;;;;;;;5010759;28;20403;-69
2023/05/15 03:14:52;;;;;;;12.88;9.75;;;;;;;;;;5010327;28;20060;-69
2023/05/15 03:17:18;;;;;;;15.88;10.95;;;;;;;;;;5010836;28;20053;-69
2023/05/15 03:19:46;;;;;;;15.20;10.23;;;;;;;;;;5010139;28;20512;-69
2023/05/15 03:22:13;;;;;;;13.88;9.95;;;;;;;;;;5010573;28;20053;-69
2023/05/15 03:24:39;;;;;;;11.82;9.98;;;;;;;;;;5010489;28;20053;-69
2023/05/15 03:27:06;;;;;;;17.00;10.63;;;;;;;;;;5010586;28;20045;-69
2023/05/15 03:29:33;;;;;;;13.48;11.20;;;;;;;;;;5010929;28;20053;-69
2023/05/15 03:31:59;;;;;;;13.20;9.93;;;;;;;;;;5010215;28;20488;-70
2023/05/15 03:34:26;;;;;;;12.20;9.75;;;;;;;;;;5009864;28;20046;-70
2023/05/15 03:36:53;;;;;;;13.48;9.82;;;;;;;;;;5009871;28;20390;-69
2023/05/15 03:39:20;;;;;;;16.33;10.77;;;;;;;;;;5010052;28;20066;-69
2023/05/15 03:41:47;;;;;;;15.13;10.10;;;;;;;;;;5009965;28;20407;-69
2023/05/15 03:44:13;;;;;;;14.93;11.00;;;;;;;;;;5010573;28;20513;-71
2023/05/15 03:46:40;;;;;;;14.35;10.98;;;;;;;;;;5009792;28;20125;-69
2023/05/15 03:49:06;;;;;;;14.13;11.38;;;;;;;;;;5010243;28;20053;-69
2023/05/15 03:51:33;;;;;;;16.20;11.35;;;;;;;;;;5009544;28;20057;-68
2023/05/15 03:54:03;;;;;;;16.17;11.50;;;;;;;;;;5010535;28;20049;-69
2023/05/15 03:56:30;;;;;;;17.30;11.40;;;;;;;;;;5010000;28;20052;-69
2023/05/15 03:58:57;;;;;;;15.10;10.85;;;;;;;;;;5010224;28;20050;-69
2023/05/15 04:01:23;;;;;;;14.80;11.13;;;;;;;;;;5010133;28;20411;-68
2023/05/15 04:03:50;;;;;;;14.35;10.95;;;;;;;;;;5014344;28;20041;-68
2023/05/15 04:06:16;;;;;;;13.32;10.50;;;;;;;;;;5017760;28;20046;-68
2023/05/15 04:08:43;;;;;;;14.27;10.50;;;;;;;;;;5009771;28;20050;-69
2023/05/15 04:11:11;;;;;;;14.85;10.52;;;;;;;;;;5010169;28;20140;-68
2023/05/15 04:13:37;;;;;;;14.80;11.68;;;;;;;;;;5009876;28;20042;-69
2023/05/15 04:16:06;;;;;;;13.70;10.73;;;;;;;;;;5010062;28;20046;-68
2023/05/15 04:18:32;;;;;;;17.50;10.80;;;;;;;;;;5009448;28;20061;-69
2023/05/15 04:20:59;;;;;;;13.60;10.48;;;;;;;;;;5009730;28;20451;-68
2023/05/15 04:23:25;;;;;;;14.43;10.13;;;;;;;;;;5011447;28;20057;-68
2023/05/15 04:25:53;;;;;;;15.02;10.07;;;;;;;;;;5014035;28;20057;-68
2023/05/15 04:28:21;;;;;;;12.23;10.07;;;;;;;;;;5013818;28;20140;-69
2023/05/15 04:30:48;;;;;;;14.05;10.35;;;;;;;;;;5013427;28;20049;-68
2023/05/15 04:33:15;;;;;;;13.23;10.45;;;;;;;;;;5013632;28;20042;-68
2023/05/15 04:35:42;;;;;;;13.43;10.05;;;;;;;;;;5033636;28;20046;-68
2023/05/15 04:38:08;;;;;;;15.00;10.57;;;;;;;;;;5033581;28;20041;-68
2023/05/15 04:40:35;;;;;;;12.75;10.13;;;;;;;;;;5032812;28;20140;-69
2023/05/15 04:43:02;;;;;;;13.13;9.65;;;;;;;;;;5033590;28;20041;-69
2023/05/15 04:45:30;;;;;;;13.82;10.65;;;;;;;;;;5032873;28;20067;-69
2023/05/15 04:47:57;;;;;;;13.73;10.38;;;;;;;;;;5033093;28;20041;-69
2023/05/15 04:50:23;;;;;;;14.52;10.55;;;;;;;;;;5033232;28;20045;-68
2023/05/15 04:52:50;;;;;;;14.63;10.45;;;;;;;;;;5033406;28;20050;-68
2023/05/15 04:55:16;;;;;;;14.38;11.35;;;;;;;;;;5032749;28;20049;-69
2023/05/15 04:57:43;;;;;;;15.73;10.95;;;;;;;;;;5033236;28;20061;-68
2023/05/15 05:00:11;;;;;;;13.75;10.10;;;;;;;;;;5032721;28;20046;-68
2023/05/15 05:02:39;;;;;;;14.35;10.77;;;;;;;;;;5032455;28;20057;-68
2023/05/15 05:05:07;;;;;;;13.60;10.02;;;;;;;;;;5016148;28;20050;-68
2023/05/15 05:07:33;;;;;;;12.35;9.75;;;;;;;;;;5024610;28;20056;-68
2023/05/15 05:10:00;;;;;;;11.70;9.70;;;;;;;;;;5032706;28;20054;-68
2023/05/15 05:12:26;;;;;;;13.02;10.27;;;;;;;;;;5032226;28;20045;-68
2023/05/15 05:14:54;;;;;;;11.77;9.93;;;;;;;;;;5032638;28;20141;-68
2023/05/15 05:17:20;;;;;;;12.85;9.93;;;;;;;;;;5031828;28;20064;-68
2023/05/15 05:19:48;;;;;;;12.20;9.45;;;;;;;;;;5032926;28;20061;-68
2023/05/15 05:22:15;;;;;;;12.85;10.05;;;;;;;;;;5032318;28;20043;-68
2023/05/15 05:24:41;;;;;;;13.20;9.93;;;;;;;;;;5032474;28;20052;-68
2023/05/15 05:27:08;;;;;;;13.20;10.13;;;;;;;;;;5031986;28;20052;-68
2023/05/15 05:29:34;;;;;;;14.70;10.70;;;;;;;;;;5032059;28;20095;-68
2023/05/15 05:32:01;;;;;;;15.25;11.02;;;;;;;;;;5032678;28;20046;-69
2023/05/15 05:34:28;;;;;;;13.30;10.60;;;;;;;;;;5020772;28;20046;-69
2023/05/15 05:36:56;;;;;;;16.00;11.57;;;;;;;;;;5012665;28;20410;-69
2023/05/15 05:39:23;;;;;;;16.08;11.18;;;;;;;;;;5011841;28;20049;-69
2023/05/15 05:41:49;;;;;;;18.27;15.30;;;;;;;;;;5012505;28;20045;-69
2023/05/15 05:44:16;;;;;;;17.15;11.90;;;;;;;;;;5012357;28;20048;-69
2023/05/15 05:46:44;;;;;;;14.13;10.70;;;;;;;;;;5012372;28;20046;-69
2023/05/15 05:49:10;;;;;;;14.75;10.40;;;;;;;;;;5012034;28;20108;-69
2023/05/15 05:51:37;;;;;;;15.85;10.40;;;;;;;;;;5012616;28;20495;-69
2023/05/15 05:54:05;;;;;;;13.18;10.07;;;;;;;;;;5011812;28;20045;-69
2023/05/15 05:56:32;;;;;;;12.90;10.85;;;;;;;;;;5011950;28;20041;-69
2023/05/15 05:59:00;;;;;;;12.43;10.45;;;;;;;;;;5012310;28;20086;-69
2023/05/15 06:01:27;;;;;;;13.68;10.52;;;;;;;;;;5011513;28;20085;-69
2023/05/15 06:03:54;;;;;;;13.20;10.68;;;;;;;;;;5011262;28;20053;-69
2023/05/15 06:06:21;;;;;;;14.48;10.50;;;;;;;;;;5010845;28;20077;-68
2023/05/15 06:08:47;;;;;;;11.38;9.45;;;;;;;;;;5028385;28;20069;-71
2023/05/15 06:11:15;;;;;;;10.90;9.63;;;;;;;;;;5016393;28;20133;-69
2023/05/15 06:13:42;;;;;;;12.55;9.57;;;;;;;;;;5011524;28;20313;-69
2023/05/15 06:16:09;;;;;;;12.82;9.95;;;;;;;;;;5010881;28;20046;-68
2023/05/15 06:18:35;;;;;;;11.40;9.57;;;;;;;;;;5011551;28;20046;-69
2023/05/15 06:21:02;;;;;;;13.35;9.75;;;;;;;;;;5011595;28;20068;-68
2023/05/15 06:23:28;;;;;;;12.77;10.10;;;;;;;;;;5011067;28;20057;-68
2023/05/15 06:25:55;;;;;;;12.02;10.07;;;;;;;;;;5011287;28;20072;-68
2023/05/15 06:28:23;;;;;;;13.65;10.13;;;;;;;;;;5011035;28;20054;-69
2023/05/15 06:30:50;;;;;;;12.32;10.13;;;;;;;;;;5024590;28;20144;-69
2023/05/15 06:33:16;;;;;;;11.80;10.00;;;;;;;;;;5030670;28;20081;-69
2023/05/15 06:35:43;;;;;;;11.82;10.20;;;;;;;;;;5031489;28;20045;-69
2023/05/15 06:38:09;;;;;;;13.93;10.90;;;;;;;;;;5030604;28;20487;-70
2023/05/15 06:40:36;;;;;;;10.60;9.35;;;;;;;;;;5030895;28;20049;-70
2023/05/15 06:43:02;;;;;;;12.73;10.85;;;;;;;;;;5030859;28;20132;-70
2023/05/15 06:45:30;;;;;;;11.60;10.40;;;;;;;;;;5029785;28;20056;-70
2023/05/15 06:47:57;;;;;;;12.98;10.48;;;;;;;;;;5030936;28;20411;-70
2023/05/15 06:50:24;;;;;;;12.40;10.65;;;;;;;;;;5030045;28;20414;-70
2023/05/15 06:52:50;;;;;;;12.38;10.40;;;;;;;;;;5030630;28;20136;-70
2023/05/15 06:55:17;;;;;;;13.40;10.65;;;;;;;;;;5029478;28;20081;-70
2023/05/15 06:57:44;;;;;;;14.05;11.13;;;;;;;;;;5030755;28;20067;-70
2023/05/15 07:00:11;;;;;;;14.25;11.02;;;;;;;;;;5029306;28;20505;-70
2023/05/15 07:02:39;;;;;;;14.57;11.55;;;;;;;;;;5030879;28;20051;-70
2023/05/15 07:05:07;;;;;;;14.60;11.85;;;;;;;;;;5027538;28;20495;-71
2023/05/15 07:07:34;;;;;;;14.23;11.82;;;;;;;;;;5010538;28;20084;-71
2023/05/15 07:10:00;;;;;;;17.92;13.18;;;;;;;;;;5009673;28;20049;-70
2023/05/15 07:12:27;;;;;;;15.73;12.48;;;;;;;;;;5010376;28;20247;-70
2023/05/15 07:14:53;;;;;;;17.10;12.32;;;;;;;;;;5010193;28;20133;-70
2023/05/15 07:17:20;;;;;;;15.77;12.95;;;;;;;;;;5009910;28;20046;-71
2023/05/15 07:19:48;;;;;;;17.38;13.20;;;;;;;;;;5009424;28;20057;-70
2023/05/15 07:22:14;;;;;;;15.27;12.63;;;;;;;;;;5009942;28;20046;-69
2023/05/15 07:24:41;;;;;;;17.17;13.50;;;;;;;;;;5010469;28;20050;-70
2023/05/15 07:27:07;;;;;;;15.80;12.68;;;;;;;;;;5009779;28;20132;-69
2023/05/15 07:29:34;;;;;;;19.90;13.73;;;;;;;;;;5009672;28;20041;-70
2023/05/15 07:32:01;;;;;;;21.70;14.43;;;;;;;;;;5024904;28;20425;-70
2023/05/15 07:34:27;;;;;;;20.58;13.75;;;;;;;;;;5029623;28;20144;-70
2023/05/15 07:36:55;;;;;;;18.88;14.10;;;;;;;;;;5029697;28;20049;-71
2023/05/15 07:39:22;;;;;;;20.13;14.48;;;;;;;;;;5029218;28;20046;-68
2023/05/15 07:41:48;;;;;;;17.33;13.18;;;;;;;;;;5029751;28;20099;-70
2023/05/15 07:44:15;;;;;;;17.45;13.07;;;;;;;;;;5029668;28;20049;-68
2023/05/15 07:46:41;;;;;;;17.42;12.82;;;;;;;;;;5029570;28;20049;-66
2023/05/15 07:49:08;;;;;;;17.42;13.73;;;;;;;;;;5021108;28;20054;-67
2023/05/15 07:51:34;;;;;;;18.50;13.55;;;;;;;;;;5010026;28;20050;-66
2023/05/15 07:54:03;;;;;;;16.10;12.88;;;;;;;;;;5010786;28;20050;-66
2023/05/15 07:56:29;;;;;;;18.25;13.45;;;;;;;;;;5009402;28;20437;-66
2023/05/15 07:58:56;;;;;;;18.75;13.38;;;;;;;;;;5012848;28;20480;-67
2023/05/15 08:01:23;;;;;;;15.02;11.88;;;;;;;;;;5018322;28;20049;-66
2023/05/15 08:03:49;;;;;;;15.80;12.20;;;;;;;;;;5033793;28;20049;-66
2023/05/15 08:06:16;;;;;;;16.33;12.38;;;;;;;;;;5021121;28;20050;-66
2023/05/15 08:08:42;;;;;;;19.45;13.73;;;;;;;;;;5013362;28;20050;-66
2023/05/15 08:11:10;;;;;;;18.17;13.18;;;;;;;;;;5012901;28;20056;-64
2023/05/15 08:13:37;;;;;;;16.38;13.43;;;;;;;;;;5012833;28;20046;-67
2023/05/15 08:16:04;;;;;;;18.08;14.27;;;;;;;;;;5013277;28;20077;-66
2023/05/15 08:18:30;;;;;;;21.10;14.02;;;;;;;;;;5012806;28;20281;-67
2023/05/15 08:20:57;;;;;;;19.15;14.32;;;;;;;;;;5012920;28;20049;-65
2023/05/15 08:23:24;;;;;;;18.75;14.15;;;;;;;;;;5012576;28;20052;-67
2023/05/15 08:25:50;;;;;;;21.63;14.43;;;;;;;;;;5013032;28;20049;-66
2023/05/15 08:28:18;;;;;;;19.10;14.18;;;;;;;;;;5012587;28;20046;-66
2023/05/15 08:30:44;;;;;;;17.33;14.13;;;;;;;;;;5012915;28;20057;-67
2023/05/15 08:33:11;;;;;;;17.85;13.52;;;;;;;;;;5012747;28;20053;-67
2023/05/15 08:35:38;;;;;;;20.58;14.65;;;;;;;;;;5031994;28;20060;-66
2023/05/15 08:38:05;;;;;;;21.45;14.45;;;;;;;;;;5033186;28;20060;-66
2023/05/15 08:40:31;;;;;;;17.88;14.00;;;;;;;;;;5025090;28;20170;-67
2023/05/15 08:43:02;;;;;;;21.02;14.90;;;;;;;;;;5039741;28;20407;-66
2023/05/15 08:45:31;;;;;;;17.02;13.63;;;;;;;;;;5041108;28;20049;-67
2023/05/15 08:48:00;;;;;;;19.45;15.18;;;;;;;;;;5034792;28;20050;-65
2023/05/15 08:50:28;;;;;;;19.17;14.88;;;;;;;;;;5013071;28;20496;-66
2023/05/15 08:52:57;;;;;;;20.25;14.98;;;;;;;;;;5012126;28;20054;-67
2023/05/15 08:55:24;;;;;;;19.65;15.10;;;;;;;;;;5032096;28;20099;-67
2023/05/15 08:57:50;;;;;;;18.45;14.07;;;;;;;;;;5031700;28;20136;-65
2023/05/15 09:00:20;;;;;;;20.00;15.13;;;;;;;;;;5033722;28;20419;-67
2023/05/15 09:02:48;;;;;;;17.63;14.43;;;;;;;;;;5030863;28;20050;-66
2023/05/15 09:05:15;;;;;;;19.13;14.13;;;;;;;;;;5031661;28;20053;-66
2023/05/15 09:07:43;;;;;;;19.35;14.65;;;;;;;;;;5031432;28;20511;-67
2023/05/15 09:10:10;;;;;;;18.10;15.15;;;;;;;;;;5031073;28;20049;-67
2023/05/15 09:12:42;;;;;;;17.10;14.18;;;;;;;;;;5031521;28;20129;-66
2023/05/15 09:15:10;;;;;;;18.43;14.20;;;;;;;;;;5031136;28;20041;-65
2023/05/15 09:17:36;;;;;;;17.15;13.88;;;;;;;;;;5031517;28;20748;-67
2023/05/15 09:20:07;;;;;;;18.25;13.93;;;;;;;;;;5028051;28;20045;-66
2023/05/15 09:22:35;;;;;;;18.00;14.55;;;;;;;;;;5023474;28;20056;-66
2023/05/15 09:25:02;;;;;;;20.65;14.18;;;;;;;;;;5031073;28;20132;-67
2023/05/15 09:27:28;;;;;;;16.35;13.80;;;;;;;;;;5030848;28;20049;-67
2023/05/15 09:29:56;;;;;;;17.67;13.15;;;;;;;;;;5031856;28;20419;-66
2023/05/15 09:32:27;;;;;;;17.25;12.90;;;;;;;;;;5031151;28;20054;-67
2023/05/15 09:34:53;;;;;;;17.65;13.80;;;;;;;;;;5028614;28;20045;-66
2023/05/15 09:37:32;;;;;;;16.85;13.73;;;;;;;;;;5031438;28;20287;-67
2023/05/15 09:40:09;;;;;;;18.63;13.45;;;;;;;;;;5030664;28;20517;-66
2023/05/15 09:42:36;;;;;;;19.08;14.43;;;;;;;;;;5031292;28;20064;-67
2023/05/15 09:45:03;;;;;;;20.15;14.40;;;;;;;;;;5029710;28;20046;-67
2023/05/15 09:47:30;;;;;;;18.02;14.15;;;;;;;;;;5031037;28;20132;-66
2023/05/15 09:49:56;;;;;;;19.88;13.77;;;;;;;;;;5030365;28;20049;-66
2023/05/15 09:52:23;;;;;;;18.20;14.90;;;;;;;;;;5031175;28;20049;-67
2023/05/15 09:54:52;;;;;;;19.10;14.02;;;;;;;;;;5030804;28;20045;-67
2023/05/15 09:57:21;;;;;;;17.13;13.43;;;;;;;;;;5030326;28;20045;-66
2023/05/15 09:59:49;;;;;;;16.45;13.60;;;;;;;;;;5026604;28;20120;-67
2023/05/15 10:02:23;;;;;;;17.00;12.45;;;;;;;;;;5011919;28;20052;-66
2023/05/15 10:04:55;;;;;;;13.95;12.45;;;;;;;;;;5023768;28;20534;-69
2023/05/15 10:07:28;;;;;;;16.67;13.05;;;;;;;;;;5024579;28;20069;-66
2023/05/15 10:09:56;;;;;;;14.07;12.57;;;;;;;;;;5030513;28;20136;-66
2023/05/15 10:12:23;;;;;;;16.50;12.48;;;;;;;;;;5030902;28;20065;-66
2023/05/15 10:14:51;;;;;;;15.45;12.73;;;;;;;;;;5011704;28;20057;-67
2023/05/15 10:17:20;;;;;;;17.02;12.25;;;;;;;;;;5013116;28;20060;-66
2023/05/15 10:19:49;;;;;;;14.48;12.75;;;;;;;;;;5029954;28;20701;-66
2023/05/15 10:22:19;;;;;;;16.00;13.68;;;;;;;;;;5030361;28;20041;-66
2023/05/15 10:24:48;;;;;;;16.35;12.93;;;;;;;;;;5027034;28;20049;-67
2023/05/15 10:27:17;;;;;;;14.60;12.15;;;;;;;;;;5026077;28;20045;-66
2023/05/15 10:29:45;;;;;;;13.73;11.30;;;;;;;;;;5016867;28;20042;-67
2023/05/15 10:32:13;;;;;;;13.55;11.60;;;;;;;;;;5010695;28;20056;-67
2023/05/15 10:34:41;;;;;;;15.60;12.90;;;;;;;;;;5020345;28;20099;-66
2023/05/15 10:37:09;;;;;;;16.95;13.98;;;;;;;;;;5019072;28;20037;-67
2023/05/15 10:39:39;;;;;;;18.50;14.48;;;;;;;;;;5019649;28;20046;-66
2023/05/15 10:42:08;;;;;;;16.23;14.52;;;;;;;;;;5029677;28;20565;-67
2023/05/15 10:44:36;;;;;;;19.02;14.70;;;;;;;;;;5022489;28;20384;-68
2023/05/15 10:47:04;;;;;;;20.75;15.55;;;;;;;;;;5023368;28;20352;-67
2023/05/15 10:49:30;;;;;;;19.17;14.75;;;;;;;;;;5010610;28;20096;-70
2023/05/15 10:52:00;;;;;;;12.40;10.50;;;;;;;;;;5029295;28;20050;-70
2023/05/15 10:54:28;;;;;;;8.75;7.75;;;;;;;;;;5021256;28;20463;-68
2023/05/15 10:56:56;;;;;;;8.40;6.95;;;;;;;;;;5011523;28;20050;-68
2023/05/15 10:59:31;;;;;;;10.20;7.60;;;;;;;;;;5015881;28;20045;-68
2023/05/15 11:02:19;;;;;;;10.73;7.88;;;;;;;;;;5027525;28;20068;-67
2023/05/15 11:04:46;;;;;;;7.63;5.93;;;;;;;;;;5025560;28;20095;-68
2023/05/15 11:07:14;;;;;;;7.10;5.07;;;;;;;;;;5030250;28;20525;-67
2023/05/15 11:09:41;;;;;;;7.80;5.93;;;;;;;;;;5028718;28;20364;-67
2023/05/15 11:12:10;;;;;;;7.07;5.40;;;;;;;;;;5030065;28;20499;-68
2023/05/15 11:14:39;;;;;;;8.40;5.47;;;;;;;;;;5029409;28;20049;-67
2023/05/15 11:17:08;;;;;;;8.27;4.68;;;;;;;;;;5029442;28;20045;-68
2023/05/15 11:19:38;;;;;;;5.45;4.93;;;;;;;;;;5029356;28;20402;-68
2023/05/15 11:22:17;;;;;;;5.97;4.70;;;;;;;;;;5023978;28;20496;-67
2023/05/15 11:24:49;;;;;;;4.63;4.05;;;;;;;;;;5014970;28;20042;-69
2023/05/15 11:27:18;;;;;;;5.80;4.33;;;;;;;;;;5028575;28;20061;-68
2023/05/15 11:30:03;;;;;;;5.45;4.40;;;;;;;;;;5029229;28;20045;-67
2023/05/15 11:32:45;;;;;;;4.53;3.88;;;;;;;;;;5028788;28;20491;-69
2023/05/15 11:35:14;;;;;;;5.63;4.55;;;;;;;;;;5026920;28;20411;-68
2023/05/15 11:37:43;;;;;;;6.30;4.60;;;;;;;;;;5028835;28;20053;-67
2023/05/15 11:40:14;;;;;;;6.95;4.90;;;;;;;;;;5028683;28;20462;-68
2023/05/15 11:42:41;;;;;;;6.70;4.72;;;;;;;;;;5026468;28;20054;-68
2023/05/15 11:45:10;;;;;;;7.28;4.30;;;;;;;;;;5009187;28;20046;-68
2023/05/15 11:47:37;;;;;;;5.25;4.18;;;;;;;;;;5009325;28;20049;-68
2023/05/15 11:50:06;;;;;;;8.00;4.32;;;;;;;;;;5008461;28;20081;-67
2023/05/15 11:52:33;;;;;;;5.50;4.30;;;;;;;;;;5009344;28;20495;-68
2023/05/15 11:55:00;;;;;;;6.40;4.05;;;;;;;;;;5018027;28;20046;-67
2023/05/15 11:57:27;;;;;;;5.72;4.22;;;;;;;;;;5028855;28;20060;-68
2023/05/15 11:59:54;;;;;;;5.05;4.38;;;;;;;;;;5028834;28;20057;-68
2023/05/15 12:02:20;;;;;;;5.95;4.80;;;;;;;;;;5028394;28;20042;-69
2023/05/15 12:04:49;;;;;;;7.03;4.43;;;;;;;;;;5028343;28;20073;-68
2023/05/15 12:07:17;;;;;;;5.63;4.90;;;;;;;;;;5026675;28;20064;-68
2023/05/15 12:09:44;;;;;;;6.72;4.93;;;;;;;;;;5028642;28;20057;-68
2023/05/15 12:12:13;;;;;;;4.75;4.35;;;;;;;;;;5028451;28;20502;-68
2023/05/15 12:14:40;;;;;;;7.50;5.13;;;;;;;;;;5029512;28;20466;-68
2023/05/15 12:17:06;;;;;;;5.70;4.90;;;;;;;;;;5027984;28;20056;-68
2023/05/15 12:19:35;;;;;;;11.20;8.07;;;;;;;;;;5028442;28;20057;-68
2023/05/15 12:22:04;;;;;;;6.22;5.63;;;;;;;;;;5028687;28;20060;-68
2023/05/15 12:24:34;;;;;;;5.80;5.18;;;;;;;;;;5028435;28;20069;-68
2023/05/15 12:27:01;;;;;;;6.18;4.93;;;;;;;;;;5029156;28;20042;-68
2023/05/15 12:29:28;;;;;;;6.68;5.28;;;;;;;;;;5027882;28;20389;-69
2023/05/15 12:32:01;;;;;;;7.53;5.40;;;;;;;;;;5029408;28;20052;-68
2023/05/15 12:34:27;;;;;;;6.40;5.30;;;;;;;;;;5008464;28;20050;-68
2023/05/15 12:36:54;;;;;;;6.05;4.97;;;;;;;;;;5009090;28;20046;-67
2023/05/15 12:39:20;;;;;;;6.95;5.40;;;;;;;;;;5023843;28;20049;-68
2023/05/15 12:41:48;;;;;;;6.53;5.20;;;;;;;;;;5028536;28;20102;-68
2023/05/15 12:44:18;;;;;;;7.53;5.97;;;;;;;;;;5029492;28;20045;-67
2023/05/15 12:46:45;;;;;;;6.55;5.55;;;;;;;;;;5032551;28;20479;-68
2023/05/15 12:49:12;;;;;;;7.88;6.00;;;;;;;;;;5033666;28;20052;-68
2023/05/15 12:51:42;;;;;;;6.75;6.05;;;;;;;;;;5032697;28;20056;-68
2023/05/15 12:54:17;;;;;;;8.00;6.05;;;;;;;;;;5033457;28;20131;-69
2023/05/15 12:56:43;;;;;;;6.32;5.72;;;;;;;;;;5032716;28;20046;-67
2023/05/15 12:59:11;;;;;;;6.47;5.75;;;;;;;;;;5033208;28;20045;-70
2023/05/15 13:01:40;;;;;;;5.78;4.97;;;;;;;;;;5032113;28;20068;-68
2023/05/15 13:04:08;;;;;;;5.55;4.88;;;;;;;;;;5032324;28;20052;-69
2023/05/15 13:06:37;;;;;;;5.85;4.90;;;;;;;;;;5030698;28;20045;-68
2023/05/15 13:09:04;;;;;;;7.20;5.03;;;;;;;;;;5032704;28;20055;-68
2023/05/15 13:11:31;;;;;;;5.97;5.00;;;;;;;;;;5031880;28;20057;-69
2023/05/15 13:13:58;;;;;;;6.95;5.55;;;;;;;;;;5032808;28;20557;-69
2023/05/15 13:16:28;;;;;;;7.43;5.47;;;;;;;;;;5032696;28;20053;-69
2023/05/15 13:18:55;;;;;;;6.90;5.25;;;;;;;;;;5032212;28;20049;-68
2023/05/15 13:21:22;;;;;;;5.47;4.60;;;;;;;;;;5032338;28;20100;-67
2023/05/15 13:23:49;;;;;;;6.15;4.65;;;;;;;;;;5032283;28;20049;-68
2023/05/15 13:26:15;;;;;;;5.50;4.80;;;;;;;;;;5032383;28;20052;-68
2023/05/15 13:28:42;;;;;;;6.68;4.70;;;;;;;;;;5031766;28;20053;-69
2023/05/15 13:31:08;;;;;;;6.15;5.20;;;;;;;;;;5032439;28;20049;-70
2023/05/15 13:33:36;;;;;;;5.22;4.70;;;;;;;;;;5031529;28;20420;-69
2023/05/15 13:36:03;;;;;;;5.60;4.78;;;;;;;;;;5032196;28;20456;-67
2023/05/15 13:38:30;;;;;;;6.97;5.50;;;;;;;;;;5030398;28;20053;-68
2023/05/15 13:40:56;;;;;;;5.75;4.65;;;;;;;;;;5031944;28;20053;-70
2023/05/15 13:43:23;;;;;;;7.82;4.85;;;;;;;;;;5031910;28;20488;-68
2023/05/15 13:45:49;;;;;;;7.00;4.72;;;;;;;;;;5031736;28;20509;-69
2023/05/15 13:48:16;;;;;;;6.05;4.88;;;;;;;;;;5032164;28;20049;-70
2023/05/15 13:50:44;;;;;;;5.25;4.75;;;;;;;;;;5031203;28;20132;-69
2023/05/15 13:53:11;;;;;;;6.03;5.18;;;;;;;;;;5014920;28;20492;-69
2023/05/15 13:55:37;;;;;;;5.10;4.60;;;;;;;;;;5010345;28;20053;-69
2023/05/15 13:58:04;;;;;;;4.78;4.32;;;;;;;;;;5011618;28;20123;-69
2023/05/15 14:00:31;;;;;;;8.52;4.75;;;;;;;;;;5011547;28;20500;-70
2023/05/15 14:02:57;;;;;;;6.28;4.70;;;;;;;;;;5011785;28;20053;-69
2023/05/15 14:05:24;;;;;;;6.10;4.88;;;;;;;;;;5014078;28;20053;-68
2023/05/15 14:07:52;;;;;;;6.32;4.65;;;;;;;;;;5011548;28;20496;-70
2023/05/15 14:10:18;;;;;;;6.38;5.00;;;;;;;;;;5011848;28;20046;-70
2023/05/15 14:12:45;;;;;;;7.72;4.93;;;;;;;;;;5011687;28;20053;-70
2023/05/15 14:15:12;;;;;;;5.07;4.57;;;;;;;;;;5011789;28;20064;-70
2023/05/15 14:17:39;;;;;;;5.55;4.90;;;;;;;;;;5011107;28;20057;-69
2023/05/15 14:20:08;;;;;;;6.95;4.97;;;;;;;;;;5011440;28;20053;-67
2023/05/15 14:22:35;;;;;;;5.82;5.15;;;;;;;;;;5011412;28;20045;-68
2023/05/15 14:25:05;;;;;;;5.88;5.28;;;;;;;;;;5021341;28;20045;-68
2023/05/15 14:27:31;;;;;;;6.25;4.75;;;;;;;;;;5031068;28;20049;-68
2023/05/15 14:29:58;;;;;;;6.43;5.22;;;;;;;;;;5031105;28;20516;-70
2023/05/15 14:32:25;;;;;;;6.07;5.20;;;;;;;;;;5031116;28;20053;-70